Time;durP1;ratioP1;P1;durP2;ratioP2;P2;SDS_P1;SDS_P2;PMS_P1;PMS_P2;Temp;Humidity;BMP_temperature;BMP_pressure;BME280_temperature;BME280_humidity;BME280_pressure;Samples;Min_cycle;Max_cycle;Signal;HPM_P1;HPM_P2
2023/10/24 00:00:26;;;;;;;;;;;;;;;16.87;44.40;100858.38;5078649;28;1057;-48
2023/10/24 00:02:52;;;;;;;;;;;;;;;17.81;45.95;100859.09;5091688;28;1070;-52
2023/10/24 00:05:18;;;;;;;;;;;;;;;17.26;46.13;100860.59;5086157;28;1138;-53
2023/10/24 00:07:43;;;;;;;;;;;;;;;16.99;46.32;100855.38;5087848;28;1062;-50
2023/10/24 00:10:09;;;;;;;;;;;;;;;16.96;45.60;100855.09;5084800;28;1193;-53
2023/10/24 00:12:34;;;;;;;;;;;;;;;17.72;46.42;100854.19;5087947;28;1245;-50
2023/10/24 00:15:00;;;;;;;;;;;;;;;17.28;46.60;100841.91;5092280;28;1970;-52
2023/10/24 00:17:25;;;;;;;;;;;;;;;17.04;46.01;100851.81;5091098;28;1107;-48
2023/10/24 00:19:51;;;;;;;;;;;;;;;16.96;45.81;100850.44;5081204;28;1031;-52
2023/10/24 00:22:16;;;;;;;;;;;;;;;16.87;45.25;100858.38;5091178;28;1133;-53
2023/10/24 00:24:42;;;;;;;;;;;;;;;16.84;45.58;100863.56;5094721;28;1142;-51
2023/10/24 00:27:07;;;;;;;;;;;;;;;17.70;46.43;100863.84;5079560;28;1066;-53
2023/10/24 00:29:33;;;;;;;;;;;;;;;17.19;46.71;100861.97;5079282;28;1129;-53
2023/10/24 00:31:58;;;;;;;;;;;;;;;17.04;46.07;100844.41;5090524;28;1170;-55
2023/10/24 00:34:24;;;;;;;;;;;;;;;17.03;45.42;100844.69;5099226;28;1074;-54
2023/10/24 00:36:49;;;;;;;;;;;;;;;16.89;45.36;100844.41;5087271;28;1965;-54
2023/10/24 00:39:15;;;;;;;;;;;;;;;18.12;46.12;100841.41;5097207;28;1213;-53
2023/10/24 00:41:40;;;;;;;;;;;;;;;17.28;46.99;100839.16;5099039;28;1031;-51
2023/10/24 00:44:06;;;;;;;;;;;;;;;17.12;46.50;100839.44;5087872;28;1120;-51
2023/10/24 00:46:35;;;;;;;;;;;;;;;17.00;46.00;100832.31;5072101;28;1110;-54
2023/10/24 00:49:01;;;;;;;;;;;;;;;16.92;45.35;100839.16;5062754;28;1122;-52
2023/10/24 00:51:27;;;;;;;;;;;;;;;16.86;45.27;100828.44;5061091;28;1106;-54
2023/10/24 00:53:52;;;;;;;;;;;;;;;16.84;44.83;100836.94;5091968;28;1171;-53
2023/10/24 00:56:18;;;;;;;;;;;;;;;16.70;44.68;100841.31;5078850;28;1968;-53
2023/10/24 00:58:44;;;;;;;;;;;;;;;16.84;44.58;100858.91;5078896;28;1146;-52
2023/10/24 01:01:10;;;;;;;;;;;;;;;17.48;46.07;100845.72;5069858;28;1135;-53
2023/10/24 01:03:35;;;;;;;;;;;;;;;17.12;45.99;100844.94;5083564;28;1146;-54
2023/10/24 01:06:01;;;;;;;;;;;;;;;17.39;46.52;100841.88;5069132;28;1000;-53
2023/10/24 01:08:27;;;;;;;;;;;;;;;17.45;46.78;100840.78;5074084;28;1213;-52
2023/10/24 01:10:52;;;;;;;;;;;;;;;17.14;46.65;100845.47;5090034;28;1190;-52
2023/10/24 01:13:18;;;;;;;;;;;;;;;16.96;46.03;100849.59;5097762;28;1066;-52
2023/10/24 01:15:43;;;;;;;;;;;;;;;17.18;46.29;100841.94;5098400;28;1905;-56
2023/10/24 01:18:09;;;;;;;;;;;;;;;17.73;46.94;100852.28;5098318;28;1102;-55
2023/10/24 01:20:39;;;;;;;;;;;;;;;17.25;46.83;100852.59;5079426;28;1103;-55
2023/10/24 01:23:09;;;;;;;;;;;;;;;17.08;46.26;100840.00;5080075;28;1146;-54
2023/10/24 01:25:38;;;;;;;;;;;;;;;17.04;45.58;100840.81;5078249;28;1101;-55
2023/10/24 01:28:03;;;;;;;;;;;;;;;16.93;45.13;100842.75;5077920;28;1059;-55
2023/10/24 01:30:29;;;;;;;;;;;;;;;17.62;46.10;100845.97;5091047;28;1233;-55
2023/10/24 01:32:54;;;;;;;;;;;;;;;17.47;46.89;100843.25;5066271;28;2044;-54
2023/10/24 01:35:20;;;;;;;;;;;;;;;17.21;46.51;100822.13;5085035;28;1905;-57
2023/10/24 01:37:45;;;;;;;;;;;;;;;17.03;45.98;100820.78;5088706;28;1126;-57
2023/10/24 01:40:11;;;;;;;;;;;;;;;16.95;45.47;100826.00;5090715;28;1027;-57
2023/10/24 01:42:37;;;;;;;;;;;;;;;17.79;46.35;100829.13;5079803;28;1299;-56
2023/10/24 01:45:02;;;;;;;;;;;;;;;17.34;46.56;100822.66;5064597;28;913;-56
2023/10/24 01:47:28;;;;;;;;;;;;;;;17.09;46.18;100819.66;5077592;28;1114;-55
2023/10/24 01:49:53;;;;;;;;;;;;;;;17.12;46.02;100825.72;5090617;28;1059;-55
2023/10/24 01:52:19;;;;;;;;;;;;;;;17.44;47.05;100822.63;5084318;28;1207;-55
2023/10/24 01:54:45;;;;;;;;;;;;;;;17.20;46.40;100827.91;5085645;28;1046;-56
2023/10/24 01:57:11;;;;;;;;;;;;;;;17.10;45.77;100820.50;5090694;28;1969;-56
2023/10/24 01:59:36;;;;;;;;;;;;;;;18.27;46.20;100818.50;5059878;28;1154;-55
2023/10/24 02:02:02;;;;;;;;;;;;;;;17.38;47.47;100821.81;5065127;28;1225;-52
2023/10/24 02:04:27;;;;;;;;;;;;;;;17.28;46.51;100824.59;5079813;28;1178;-52
2023/10/24 02:06:52;;;;;;;;;;;;;;;17.15;45.84;100825.16;5092107;28;1158;-55
2023/10/24 02:09:18;;;;;;;;;;;;;;;17.07;45.62;100815.56;5077040;28;936;-56
2023/10/24 02:11:44;;;;;;;;;;;;;;;16.97;45.11;100819.13;5096403;28;1063;-54
2023/10/24 02:14:09;;;;;;;;;;;;;;;18.02;46.34;100822.22;5085229;28;1142;-53
2023/10/24 02:16:35;;;;;;;;;;;;;;;17.34;46.98;100823.47;5090774;28;1890;-54
2023/10/24 02:19:00;;;;;;;;;;;;;;;17.23;46.10;100816.34;5089173;28;1067;-53
2023/10/24 02:21:26;;;;;;;;;;;;;;;17.14;45.49;100829.00;5060142;28;1142;-55
2023/10/24 02:23:51;;;;;;;;;;;;;;;16.99;45.23;100822.41;5088826;28;1023;-55
2023/10/24 02:26:17;;;;;;;;;;;;;;;16.89;45.02;100839.72;5092169;28;1066;-54
2023/10/24 02:28:42;;;;;;;;;;;;;;;16.89;44.74;100833.41;5076891;28;1143;-55
2023/10/24 02:31:08;;;;;;;;;;;;;;;17.50;45.97;100839.94;5077419;28;1242;-54
2023/10/24 02:33:34;;;;;;;;;;;;;;;17.15;46.14;100838.88;5084866;28;885;-51
2023/10/24 02:36:09;;;;;;;;;;;;;;;16.98;45.79;100834.50;5076797;28;1961;-53
2023/10/24 02:38:34;;;;;;;;;;;;;;;16.88;45.04;100848.22;5096574;28;1207;-54
2023/10/24 02:41:00;;;;;;;;;;;;;;;16.83;44.93;100850.94;5076749;28;1024;-53
2023/10/24 02:43:26;;;;;;;;;;;;;;;17.87;46.32;100852.50;5089573;28;1125;-56
2023/10/24 02:45:52;;;;;;;;;;;;;;;17.29;46.54;100848.22;5066728;28;1297;-49
2023/10/24 02:48:17;;;;;;;;;;;;;;;17.06;45.75;100850.44;5084363;28;1177;-54
2023/10/24 02:50:43;;;;;;;;;;;;;;;16.96;45.48;100860.59;5082505;28;1150;-52
2023/10/24 02:53:09;;;;;;;;;;;;;;;16.90;45.29;100863.34;5065485;28;1139;-54
2023/10/24 02:55:34;;;;;;;;;;;;;;;16.86;44.63;100855.91;5074433;28;1973;-54
2023/10/24 02:58:00;;;;;;;;;;;;;;;17.82;45.79;100860.75;5073718;28;1150;-52
2023/10/24 03:00:26;;;;;;;;;;;;;;;17.35;46.59;100858.13;5096118;28;1141;-54
2023/10/24 03:02:51;;;;;;;;;;;;;;;17.06;46.34;100866.91;5066465;28;1074;-54
2023/10/24 03:05:17;;;;;;;;;;;;;;;17.00;45.46;100868.03;5072080;28;1121;-53
2023/10/24 03:07:42;;;;;;;;;;;;;;;16.95;45.26;100865.25;5069689;28;1047;-53
2023/10/24 03:10:08;;;;;;;;;;;;;;;16.83;45.07;100854.53;5059595;28;1098;-55
2023/10/24 03:12:33;;;;;;;;;;;;;;;17.77;45.95;100858.88;5088290;28;1023;-53
2023/10/24 03:14:59;;;;;;;;;;;;;;;17.17;46.56;100865.00;5082430;28;1988;-56
2023/10/24 03:17:26;;;;;;;;;;;;;;;17.13;45.70;100860.34;5096589;28;1035;-56
2023/10/24 03:19:52;;;;;;;;;;;;;;;17.41;46.23;100865.25;5077785;28;1082;-56
2023/10/24 03:22:19;;;;;;;;;;;;;;;17.38;46.82;100862.25;5075828;28;860;-56
2023/10/24 03:24:44;;;;;;;;;;;;;;;17.17;46.18;100867.75;5089765;28;1075;-56
2023/10/24 03:27:12;;;;;;;;;;;;;;;17.05;45.68;100862.50;5087732;28;1039;-56
2023/10/24 03:29:40;;;;;;;;;;;;;;;16.96;45.41;100863.34;5077444;28;1177;-55
2023/10/24 03:32:09;;;;;;;;;;;;;;;16.84;45.19;100864.41;5069680;28;1343;-52
2023/10/24 03:34:37;;;;;;;;;;;;;;;17.84;45.90;100858.53;5063043;28;1209;-52
2023/10/24 03:37:03;;;;;;;;;;;;;;;17.23;46.16;100854.81;5070207;28;1898;-54
2023/10/24 03:39:28;;;;;;;;;;;;;;;17.02;45.98;100871.31;5086240;28;1082;-56
2023/10/24 03:41:54;;;;;;;;;;;;;;;16.97;45.29;100862.25;5087918;28;1057;-55
2023/10/24 03:44:20;;;;;;;;;;;;;;;17.79;46.36;100856.63;5088263;28;1981;-55
2023/10/24 03:46:45;;;;;;;;;;;;;;;17.21;46.85;100849.59;5090023;28;2326;-55
2023/10/24 03:49:11;;;;;;;;;;;;;;;17.05;46.18;100864.44;5086666;28;2083;-54
2023/10/24 03:51:36;;;;;;;;;;;;;;;17.00;45.79;100846.03;5088111;28;1811;-53
2023/10/24 03:54:03;;;;;;;;;;;;;;;16.97;45.07;100852.09;5097821;28;1876;-54
2023/10/24 03:56:28;;;;;;;;;;;;;;;16.85;45.00;100846.81;5089463;28;2093;-53
2023/10/24 03:58:54;;;;;;;;;;;;;;;16.79;44.61;100847.94;5087826;28;2183;-54
2023/10/24 04:01:19;;;;;;;;;;;;;;;17.57;46.17;100848.72;5092108;28;1173;-56
2023/10/24 04:03:44;;;;;;;;;;;;;;;17.15;46.40;100842.44;5099268;28;1135;-57
2023/10/24 04:06:11;;;;;;;;;;;;;;;16.91;45.79;100854.03;5086678;28;1035;-56
2023/10/24 04:08:36;;;;;;;;;;;;;;;16.90;45.58;100855.09;5085011;28;1070;-58
2023/10/24 04:11:03;;;;;;;;;;;;;;;16.80;44.97;100867.97;5099322;28;970;-56
2023/10/24 04:13:28;;;;;;;;;;;;;;;17.73;45.63;100858.59;5080023;28;1109;-51
2023/10/24 04:16:00;;;;;;;;;;;;;;;17.13;46.24;100857.59;5091733;28;1942;-49
2023/10/24 04:18:26;;;;;;;;;;;;;;;16.94;45.82;100858.13;5079388;28;944;-53
2023/10/24 04:20:51;;;;;;;;;;;;;;;16.89;45.33;100855.38;5092206;28;1027;-48
2023/10/24 04:23:17;;;;;;;;;;;;;;;17.23;46.15;100855.63;5085398;28;971;-50
2023/10/24 04:25:42;;;;;;;;;;;;;;;17.41;46.98;100859.75;5085720;28;1046;-55
2023/10/24 04:28:08;;;;;;;;;;;;;;;17.05;46.84;100862.50;5085586;28;1779;-53
2023/10/24 04:30:33;;;;;;;;;;;;;;;18.61;46.61;100849.97;5085512;28;1209;-53
2023/10/24 04:32:59;;;;;;;;;;;;;;;17.66;47.77;100866.31;5086492;28;1185;-55
2023/10/24 04:35:24;;;;;;;;;;;;;;;18.42;46.97;100864.38;5092041;28;1984;-56
2023/10/24 04:37:50;;;;;;;;;;;;;;;17.91;48.03;100870.13;5078536;28;1209;-54
2023/10/24 04:40:15;;;;;;;;;;;;;;;17.68;48.66;100871.53;5091703;28;1015;-54
2023/10/24 04:42:41;;;;;;;;;;;;;;;17.47;49.12;100871.56;5090762;28;1071;-57
2023/10/24 04:45:07;;;;;;;;;;;;;;;17.40;49.54;100885.59;5080794;28;1090;-58
2023/10/24 04:47:33;;;;;;;;;;;;;;;17.21;50.01;100881.78;5078760;28;1050;-57
2023/10/24 04:49:58;;;;;;;;;;;;;;;17.15;50.15;100886.41;5091978;28;1161;-54
2023/10/24 04:52:24;;;;;;;;;;;;;;;17.09;50.40;100893.03;5090089;28;1063;-56
2023/10/24 04:54:49;;;;;;;;;;;;;;;16.98;50.57;100892.19;5085865;28;995;-56
2023/10/24 04:57:15;;;;;;;;;;;;;;;16.89;50.69;100893.84;5079409;28;1981;-49
2023/10/24 04:59:40;;;;;;;;;;;;;;;16.80;51.14;100895.44;5090475;28;2771;-51
2023/10/24 05:02:06;;;;;;;;;;;;;;;16.77;51.11;100903.13;5079151;28;1046;-51
2023/10/24 05:04:31;;;;;;;;;;;;;;;16.70;51.24;100908.03;5078158;28;1043;-49
2023/10/24 05:06:57;;;;;;;;;;;;;;;16.61;51.54;100917.91;5077969;28;1165;-52
2023/10/24 05:09:23;;;;;;;;;;;;;;;16.60;51.40;100913.50;5082379;28;1189;-46
2023/10/24 05:11:48;;;;;;;;;;;;;;;16.58;51.57;100926.69;5097812;28;1100;-49
2023/10/24 05:14:13;;;;;;;;;;;;;;;16.50;51.88;100930.78;5098039;28;1121;-51
2023/10/24 05:16:39;;;;;;;;;;;;;;;16.52;51.85;100934.09;5092635;28;1976;-54
2023/10/24 05:19:05;;;;;;;;;;;;;;;17.54;49.90;100942.75;5077573;28;1085;-51
2023/10/24 05:21:31;;;;;;;;;;;;;;;16.95;51.44;100941.38;5091663;28;1155;-53
2023/10/24 05:23:56;;;;;;;;;;;;;;;16.76;51.75;100945.41;5090210;28;1102;-56
2023/10/24 05:26:22;;;;;;;;;;;;;;;16.61;52.27;100948.13;5092241;28;1029;-55
2023/10/24 05:28:48;;;;;;;;;;;;;;;16.56;52.30;100951.66;5079259;28;1917;-53
2023/10/24 05:31:13;;;;;;;;;;;;;;;16.51;52.24;100953.53;5091244;28;1058;-55
2023/10/24 05:33:39;;;;;;;;;;;;;;;16.99;51.75;100956.22;5084481;28;1151;-53
2023/10/24 05:36:04;;;;;;;;;;;;;;;17.42;50.80;100963.13;5077309;28;1921;-56
2023/10/24 05:38:32;;;;;;;;;;;;;;;16.94;51.94;100959.75;5089599;28;999;-53
2023/10/24 05:40:58;;;;;;;;;;;;;;;16.83;52.03;100960.78;5078017;28;1447;-56
2023/10/24 05:43:23;;;;;;;;;;;;;;;16.65;52.45;100959.34;5089853;28;1058;-55
2023/10/24 05:45:49;;;;;;;;;;;;;;;16.60;52.51;100965.66;5096778;28;1050;-54
2023/10/24 05:48:14;;;;;;;;;;;;;;;16.49;52.53;100956.56;5097518;28;1010;-54
2023/10/24 05:50:40;;;;;;;;;;;;;;;16.60;52.79;100960.19;5091745;28;1129;-55
2023/10/24 05:53:05;;;;;;;;;;;;;;;17.72;50.49;100953.19;5089000;28;1283;-55
2023/10/24 05:55:33;;;;;;;;;;;;;;;17.08;51.94;100957.31;5091905;28;1988;-54
2023/10/24 05:57:58;;;;;;;;;;;;;;;16.86;52.40;100958.34;5081860;28;1872;-54
2023/10/24 06:00:24;;;;;;;;;;;;;;;16.69;52.79;100960.47;5097338;28;1050;-52
2023/10/24 06:02:49;;;;;;;;;;;;;;;16.63;52.85;100962.38;5083372;28;1056;-54
2023/10/24 06:05:15;;;;;;;;;;;;;;;16.54;52.85;100966.75;5097263;28;1197;-54
2023/10/24 06:07:40;;;;;;;;;;;;;;;16.51;52.72;100964.53;5096258;28;986;-54
2023/10/24 06:10:06;;;;;;;;;;;;;;;16.61;52.95;100975.56;5083418;28;1051;-54
2023/10/24 06:12:32;;;;;;;;;;;;;;;17.76;50.80;100976.28;5096586;28;1369;-55
2023/10/24 06:14:57;;;;;;;;;;;;;;;17.09;52.13;100973.50;5085699;28;1978;-56
2023/10/24 06:17:23;;;;;;;;;;;;;;;16.88;52.74;100971.81;5085262;28;1144;-54
2023/10/24 06:19:49;;;;;;;;;;;;;;;16.71;53.17;100981.09;5080483;28;1202;-57
2023/10/24 06:22:15;;;;;;;;;;;;;;;16.65;52.97;100982.16;5087354;28;1116;-53
2023/10/24 06:24:40;;;;;;;;;;;;;;;16.57;53.31;100985.44;5094954;28;1393;-56
2023/10/24 06:27:06;;;;;;;;;;;;;;;16.51;53.03;100990.06;5082889;28;1101;-55
2023/10/24 06:29:32;;;;;;;;;;;;;;;16.83;53.01;100983.59;5082860;28;2330;-52
2023/10/24 06:31:57;;;;;;;;;;;;;;;17.28;51.95;100979.31;5067050;28;1242;-55
2023/10/24 06:34:23;;;;;;;;;;;;;;;16.88;52.88;100991.88;5088915;28;1409;-53
2023/10/24 06:36:48;;;;;;;;;;;;;;;16.68;53.11;101003.59;5086995;28;1980;-53
2023/10/24 06:39:14;;;;;;;;;;;;;;;16.63;53.41;100998.06;5082905;28;1138;-54
2023/10/24 06:41:39;;;;;;;;;;;;;;;16.54;53.17;101014.25;5090483;28;1076;-55
2023/10/24 06:44:05;;;;;;;;;;;;;;;16.50;53.10;101012.31;5091955;28;1076;-53
2023/10/24 06:46:31;;;;;;;;;;;;;;;16.69;53.48;101027.22;5081468;28;1285;-53
2023/10/24 06:48:56;;;;;;;;;;;;;;;17.47;51.82;101014.50;5085921;28;1097;-56
2023/10/24 06:51:22;;;;;;;;;;;;;;;16.95;53.13;101002.59;5089881;28;1042;-55
2023/10/24 06:53:47;;;;;;;;;;;;;;;16.76;53.49;100994.03;5091986;28;1258;-53
2023/10/24 06:56:13;;;;;;;;;;;;;;;16.67;53.26;100996.44;5095640;28;1960;-53
2023/10/24 06:58:40;;;;;;;;;;;;;;;16.57;53.55;100999.97;5087597;28;1918;-54
2023/10/24 07:01:05;;;;;;;;;;;;;;;16.84;53.35;100995.41;5075388;28;1108;-55
2023/10/24 07:03:31;;;;;;;;;;;;;;;17.42;51.97;100996.09;5088085;28;1036;-55
2023/10/24 07:05:56;;;;;;;;;;;;;;;16.97;53.06;101000.44;5082976;28;1450;-52
2023/10/24 07:08:22;;;;;;;;;;;;;;;16.76;53.66;100997.59;5095328;28;1098;-51
2023/10/24 07:10:48;;;;;;;;;;;;;;;16.70;53.41;101000.56;5083184;28;856;-51
2023/10/24 07:13:13;;;;;;;;;;;;;;;16.64;53.50;100991.50;5095325;28;1089;-54
2023/10/24 07:15:39;;;;;;;;;;;;;;;16.56;53.46;100992.00;5088154;28;1951;-54
2023/10/24 07:18:05;;;;;;;;;;;;;;;16.55;53.51;100998.59;5090111;28;1103;-54
2023/10/24 07:20:34;;;;;;;;;;;;;;;17.30;52.65;100992.78;5074436;28;973;-54
2023/10/24 07:22:59;;;;;;;;;;;;;;;17.23;52.76;101000.47;5087470;28;1048;-54
2023/10/24 07:25:25;;;;;;;;;;;;;;;16.89;53.46;101003.69;5081767;28;967;-53
2023/10/24 07:27:50;;;;;;;;;;;;;;;16.76;53.84;100994.03;5086622;28;2267;-52
2023/10/24 07:30:16;;;;;;;;;;;;;;;16.67;53.89;100998.38;5066828;28;1261;-53
2023/10/24 07:32:41;;;;;;;;;;;;;;;16.57;53.92;101002.72;5079511;28;1013;-53
2023/10/24 07:35:08;;;;;;;;;;;;;;;16.52;53.95;101004.63;5087900;28;1905;-54
2023/10/24 07:37:35;;;;;;;;;;;;;;;16.51;53.60;100991.97;5087468;28;960;-54
2023/10/24 07:40:02;;;;;;;;;;;;;;;17.77;51.68;100986.19;5099357;28;1277;-56
2023/10/24 07:42:27;;;;;;;;;;;;;;;17.16;53.21;100991.66;5081730;28;1050;-55
2023/10/24 07:44:53;;;;;;;;;;;;;;;16.89;53.92;100987.22;5094507;28;1101;-52
2023/10/24 07:47:19;;;;;;;;;;;;;;;16.77;53.96;100982.75;5085980;28;844;-53
2023/10/24 07:49:44;;;;;;;;;;;;;;;16.68;53.68;100981.63;5094333;28;1081;-51
2023/10/24 07:52:10;;;;;;;;;;;;;;;16.62;53.67;100988.22;5095731;28;1094;-53
2023/10/24 07:54:35;;;;;;;;;;;;;;;17.56;52.55;100979.06;5081611;28;1208;-54
2023/10/24 07:57:02;;;;;;;;;;;;;;;17.13;53.52;100979.31;5091812;28;1910;-56
2023/10/24 07:59:28;;;;;;;;;;;;;;;16.86;53.96;100969.31;5083808;28;2324;-53
2023/10/24 08:01:54;;;;;;;;;;;;;;;16.77;53.76;100966.28;5083094;28;1241;-57
2023/10/24 08:04:19;;;;;;;;;;;;;;;16.70;53.91;100964.88;5081491;28;1198;-54
2023/10/24 08:06:45;;;;;;;;;;;;;;;16.63;53.74;100953.31;5088544;28;1435;-53
2023/10/24 08:09:10;;;;;;;;;;;;;;;16.58;53.70;100951.41;5086430;28;1286;-52
2023/10/24 08:11:36;;;;;;;;;;;;;;;16.54;53.81;100953.03;5090261;28;1284;-55
2023/10/24 08:14:01;;;;;;;;;;;;;;;16.54;53.60;100953.03;5083612;28;1418;-49
2023/10/24 08:16:27;;;;;;;;;;;;;;;17.32;53.13;100945.78;5088783;28;1914;-55
2023/10/24 08:18:52;;;;;;;;;;;;;;;17.21;53.48;100945.78;5088174;28;1029;-53
2023/10/24 08:21:18;;;;;;;;;;;;;;;16.89;54.04;100952.31;5093197;28;1051;-55
2023/10/24 08:23:43;;;;;;;;;;;;;;;16.74;54.22;100953.06;5086656;28;1014;-52
2023/10/24 08:26:09;;;;;;;;;;;;;;;16.70;54.12;100948.41;5082836;28;1031;-52
2023/10/24 08:28:34;;;;;;;;;;;;;;;16.65;53.87;100943.72;5095443;28;2500;-53
2023/10/24 08:31:00;;;;;;;;;;;;;;;16.63;54.00;100945.09;5084150;28;1118;-50
2023/10/24 08:33:26;;;;;;;;;;;;;;;16.57;53.99;100947.00;5087971;28;1118;-48
2023/10/24 08:35:51;;;;;;;;;;;;;;;17.73;52.14;100940.28;5095075;28;1970;-49
2023/10/24 08:38:17;;;;;;;;;;;;;;;17.16;53.46;100936.72;5092272;28;1493;-52
2023/10/24 08:40:42;;;;;;;;;;;;;;;16.91;54.22;100924.59;5090061;28;1284;-52
2023/10/24 08:43:11;;;;;;;;;;;;;;;16.82;53.97;100924.28;5082637;28;1189;-51
2023/10/24 08:45:36;;;;;;;;;;;;;;;16.80;53.89;100922.88;5096487;28;1023;-50
2023/10/24 08:48:03;;;;;;;;;;;;;;;16.67;54.09;100919.56;5074535;28;890;-53
2023/10/24 08:50:28;;;;;;;;;;;;;;;16.64;54.05;100922.03;5081802;28;1066;-53
2023/10/24 08:52:54;;;;;;;;;;;;;;;16.63;53.96;100923.94;5068379;28;1121;-55
2023/10/24 08:55:20;;;;;;;;;;;;;;;16.57;53.80;100909.38;5084777;28;1909;-51
2023/10/24 08:57:45;;;;;;;;;;;;;;;16.56;54.04;100912.41;5089387;28;1752;-52
2023/10/24 09:00:11;;;;;;;;;;;;;;;17.41;53.04;100917.47;5097059;28;917;-52
2023/10/24 09:02:38;;;;;;;;;;;;;;;16.97;53.82;100912.53;5096942;28;1079;-51
2023/10/24 09:05:04;;;;;;;;;;;;;;;16.82;54.08;100904.25;5080413;28;1046;-52
2023/10/24 09:07:30;;;;;;;;;;;;;;;16.73;53.96;100899.28;5084205;28;1026;-52
2023/10/24 09:09:55;;;;;;;;;;;;;;;16.68;54.24;100902.00;5093107;28;1145;-51
2023/10/24 09:12:21;;;;;;;;;;;;;;;16.64;54.25;100903.63;5093724;28;1292;-54
2023/10/24 09:14:47;;;;;;;;;;;;;;;16.56;54.34;100904.16;5094684;28;1331;-50
2023/10/24 09:17:14;;;;;;;;;;;;;;;16.54;54.00;100909.94;5094386;28;1913;-54
2023/10/24 09:19:42;;;;;;;;;;;;;;;16.94;53.79;100902.06;5098349;28;1124;-55
2023/10/24 09:22:08;;;;;;;;;;;;;;;17.42;52.77;100897.13;5083721;28;1500;-51
2023/10/24 09:24:35;;;;;;;;;;;;;;;17.03;53.94;100886.69;5082970;28;1023;-53
2023/10/24 09:27:01;;;;;;;;;;;;;;;16.84;54.29;100880.88;5094088;28;1072;-49
2023/10/24 09:29:29;;;;;;;;;;;;;;;16.83;54.13;100882.00;5087770;28;1864;-50
2023/10/24 09:31:58;;;;;;;;;;;;;;;16.70;54.15;100871.53;5096962;28;1033;-52
2023/10/24 09:34:23;;;;;;;;;;;;;;;16.68;54.00;100874.53;5078921;28;1118;-53
2023/10/24 09:36:49;;;;;;;;;;;;;;;16.64;54.26;100873.44;5092705;28;1968;-51
2023/10/24 09:39:14;;;;;;;;;;;;;;;16.57;54.00;100875.63;5097311;28;998;-53
2023/10/24 09:41:47;;;;;;;;;;;;;;;17.73;52.38;100866.84;5088120;28;887;-52
2023/10/24 09:44:13;;;;;;;;;;;;;;;17.27;53.37;100856.75;5079010;28;1062;-53
2023/10/24 09:46:39;;;;;;;;;;;;;;;17.03;53.99;100856.47;5092337;28;1252;-52
2023/10/24 09:49:05;;;;;;;;;;;;;;;16.91;54.04;100856.75;5081077;28;883;-53
2023/10/24 09:51:31;;;;;;;;;;;;;;;16.81;54.17;100859.44;5086761;28;1093;-55
2023/10/24 09:53:56;;;;;;;;;;;;;;;16.74;54.42;100859.72;5091282;28;1186;-47
2023/10/24 09:56:22;;;;;;;;;;;;;;;16.70;54.28;100855.88;5088710;28;1976;-54
2023/10/24 09:58:47;;;;;;;;;;;;;;;16.71;54.04;100843.78;5078164;28;1767;-53
2023/10/24 10:01:13;;;;;;;;;;;;;;;16.66;54.17;100841.06;5062995;28;864;-53
2023/10/24 10:03:38;;;;;;;;;;;;;;;16.62;54.10;100839.94;5080262;28;1142;-54
2023/10/24 10:06:08;;;;;;;;;;;;;;;16.61;54.14;100841.03;5097289;28;1058;-54
2023/10/24 10:08:37;;;;;;;;;;;;;;;16.58;54.19;100838.84;5083177;28;1010;-54
2023/10/24 10:11:06;;;;;;;;;;;;;;;17.68;52.72;100828.34;5096887;28;1061;-52
2023/10/24 10:13:42;;;;;;;;;;;;;;;17.16;53.97;100833.13;5076434;28;939;-52
2023/10/24 10:16:08;;;;;;;;;;;;;;;16.94;54.45;100838.88;5060445;28;1914;-52
2023/10/24 10:18:52;;;;;;;;;;;;;;;16.84;54.55;100830.63;5096243;28;1219;-52
2023/10/24 10:21:17;;;;;;;;;;;;;;;16.77;54.55;100831.72;5080266;28;1081;-53
2023/10/24 10:24:02;;;;;;;;;;;;;;;16.71;54.50;100838.28;5080309;28;924;-53
2023/10/24 10:26:27;;;;;;;;;;;;;;;16.67;54.44;100837.19;5091609;28;1041;-53
2023/10/24 10:28:57;;;;;;;;;;;;;;;16.64;54.29;100832.25;5076047;28;1828;-54
2023/10/24 10:31:23;;;;;;;;;;;;;;;17.03;54.11;100823.50;5076289;28;1015;-53
2023/10/24 10:33:48;;;;;;;;;;;;;;;17.63;53.22;100817.38;5076103;28;1051;-55
2023/10/24 10:36:13;;;;;;;;;;;;;;;17.15;54.19;100808.66;5092751;28;1909;-53
2023/10/24 10:38:39;;;;;;;;;;;;;;;17.00;54.29;100812.25;5084032;28;1065;-54
2023/10/24 10:41:20;;;;;;;;;;;;;;;16.91;54.51;100814.72;5094064;28;905;-55
2023/10/24 10:43:45;;;;;;;;;;;;;;;16.84;54.55;100809.47;5096421;28;1042;-53
2023/10/24 10:46:17;;;;;;;;;;;;;;;16.83;54.43;100813.34;5089493;28;1355;-54
2023/10/24 10:48:42;;;;;;;;;;;;;;;16.78;54.40;100807.84;5085297;28;1265;-52
2023/10/24 10:51:11;;;;;;;;;;;;;;;16.73;54.43;100807.81;5089195;28;1244;-53
2023/10/24 10:53:41;;;;;;;;;;;;;;;16.68;54.24;100808.66;5088637;28;1346;-51
2023/10/24 10:56:06;;;;;;;;;;;;;;;16.64;54.21;100793.81;5073930;28;1909;-53
2023/10/24 10:58:34;;;;;;;;;;;;;;;16.57;54.28;100796.00;5089233;28;1823;-53
2023/10/24 11:01:06;;;;;;;;;;;;;;;17.29;53.82;100793.25;5089266;28;1010;-54
2023/10/24 11:03:39;;;;;;;;;;;;;;;17.34;53.77;100796.00;5066049;28;1315;-53
2023/10/24 11:06:08;;;;;;;;;;;;;;;17.00;54.48;100788.34;5078468;28;1210;-53
2023/10/24 11:08:33;;;;;;;;;;;;;;;16.87;54.63;100786.13;5083055;28;1031;-53
2023/10/24 11:11:01;;;;;;;;;;;;;;;16.80;54.78;100780.09;5079401;28;1064;-55
2023/10/24 11:13:33;;;;;;;;;;;;;;;16.73;54.87;100778.47;5085342;28;1257;-54
2023/10/24 11:16:00;;;;;;;;;;;;;;;16.67;54.76;100785.03;5079879;28;1968;-53
2023/10/24 11:18:25;;;;;;;;;;;;;;;16.63;54.54;100786.66;5084455;28;1256;-53
2023/10/24 11:20:51;;;;;;;;;;;;;;;16.63;54.56;100774.88;5065761;28;1340;-55
2023/10/24 11:23:16;;;;;;;;;;;;;;;16.55;54.75;100768.84;5084604;28;991;-54
2023/10/24 11:25:42;;;;;;;;;;;;;;;16.82;54.63;100764.19;5091603;28;1038;-55
2023/10/24 11:28:08;;;;;;;;;;;;;;;17.52;53.76;100756.09;5090571;28;2242;-57
2023/10/24 11:30:34;;;;;;;;;;;;;;;17.03;54.75;100754.03;5089093;28;980;-55
2023/10/24 11:33:00;;;;;;;;;;;;;;;16.90;54.96;100758.13;5085749;28;1035;-56
2023/10/24 11:35:26;;;;;;;;;;;;;;;16.84;54.92;100760.03;5088987;28;1979;-53
2023/10/24 11:37:51;;;;;;;;;;;;;;;16.76;54.74;100769.66;5078668;28;840;-53
2023/10/24 11:40:17;;;;;;;;;;;;;;;16.73;54.59;100770.22;5093382;28;1094;-52
2023/10/24 11:42:42;;;;;;;;;;;;;;;16.64;54.85;100771.03;5085976;28;1113;-53
2023/10/24 11:45:08;;;;;;;;;;;;;;;16.63;54.58;100770.19;5091292;28;1051;-56
2023/10/24 11:47:34;;;;;;;;;;;;;;;16.58;54.74;100764.72;5080987;28;1170;-53
2023/10/24 11:49:59;;;;;;;;;;;;;;;16.53;54.80;100764.72;5081377;28;1260;-52
2023/10/24 11:52:25;;;;;;;;;;;;;;;16.52;54.86;100771.28;5089233;28;1178;-56
2023/10/24 11:54:52;;;;;;;;;;;;;;;16.49;54.70;100766.34;5095245;28;1078;-54
2023/10/24 11:57:18;;;;;;;;;;;;;;;16.48;54.48;100772.94;5097704;28;1984;-52
2023/10/24 11:59:44;;;;;;;;;;;;;;;17.21;54.21;100764.44;5092620;28;1761;-54
2023/10/24 12:02:10;;;;;;;;;;;;;;;17.52;54.17;100758.03;5072972;28;1277;-53
2023/10/24 12:04:35;;;;;;;;;;;;;;;17.06;55.04;100750.72;5061383;28;1058;-54
2023/10/24 12:07:02;;;;;;;;;;;;;;;16.88;55.01;100749.34;5091627;28;1042;-51
2023/10/24 12:09:31;;;;;;;;;;;;;;;16.77;55.12;100743.00;5093388;28;1041;-53
2023/10/24 12:11:56;;;;;;;;;;;;;;;16.73;55.03;100745.50;5091968;28;1038;-50
2023/10/24 12:14:22;;;;;;;;;;;;;;;16.67;55.00;100751.28;5079690;28;1167;-52
2023/10/24 12:16:47;;;;;;;;;;;;;;;16.64;54.75;100749.06;5090961;28;1984;-53
2023/10/24 12:19:13;;;;;;;;;;;;;;;16.58;54.77;100735.34;5099024;28;1013;-50
2023/10/24 12:21:38;;;;;;;;;;;;;;;16.57;54.73;100738.38;5086737;28;1126;-50
2023/10/24 12:24:04;;;;;;;;;;;;;;;16.56;54.56;100736.72;5097742;28;1042;-51
2023/10/24 12:26:29;;;;;;;;;;;;;;;17.05;54.71;100738.06;5091575;28;1172;-52
2023/10/24 12:28:55;;;;;;;;;;;;;;;17.54;54.46;100734.63;5079396;28;2374;-52
2023/10/24 12:31:20;;;;;;;;;;;;;;;17.06;55.18;100740.53;5090391;28;1150;-56
2023/10/24 12:33:46;;;;;;;;;;;;;;;16.97;55.21;100742.22;5098446;28;1066;-54
2023/10/24 12:36:13;;;;;;;;;;;;;;;16.81;55.47;100740.56;5090438;28;1918;-54
2023/10/24 12:38:39;;;;;;;;;;;;;;;16.77;55.19;100737.53;5097221;28;883;-55
2023/10/24 12:41:04;;;;;;;;;;;;;;;16.70;55.20;100750.72;5086804;28;1161;-55